createdAt,value
2023-01-04T00:02:09.716Z,97549.19
2023-01-04T00:04:38.212Z,97551.69
2023-01-04T00:07:06.687Z,97559.59
2023-01-04T00:09:35.036Z,97559.81
2023-01-04T00:12:03.417Z,97551.31
2023-01-04T00:14:31.760Z,97550.72
2023-01-04T00:17:00.047Z,97553.94
2023-01-04T00:19:29.738Z,97556.47
2023-01-04T00:21:58.053Z,97552.75
2023-01-04T00:24:26.355Z,97558.88
2023-01-04T00:26:54.784Z,97548.34
2023-01-04T00:29:23.224Z,97545.94
2023-01-04T00:31:51.658Z,97543.78
2023-01-04T00:34:20.190Z,97542.81
2023-01-04T00:36:50.180Z,97537.44
2023-01-04T00:39:19.075Z,97534.09
2023-01-04T00:41:58.704Z,97535.88
2023-01-04T00:44:28.339Z,97530.41
2023-01-04T00:46:57.021Z,97534.69
2023-01-04T00:49:25.645Z,97531.94
2023-01-04T00:51:55.934Z,97527.63
2023-01-04T00:54:24.297Z,97525.13
2023-01-04T00:56:53.487Z,97524.28
2023-01-04T00:59:22.691Z,97520.81
2023-01-04T01:01:51.873Z,97531.22
2023-01-04T01:04:22.761Z,97524.28
2023-01-04T01:06:52.176Z,97525.84
2023-01-04T01:09:23.556Z,97526.56
2023-01-04T01:11:53.199Z,97522.25
2023-01-04T01:14:22.974Z,97525.59
2023-01-04T01:16:55.995Z,97517.22
2023-01-04T01:19:25.538Z,97526.03
2023-01-04T01:21:53.974Z,97526.47
2023-01-04T01:24:23.781Z,97532.56
2023-01-04T01:26:52.184Z,97532.09
2023-01-04T01:29:21.492Z,97533.31
2023-01-04T01:31:49.931Z,97522.69
2023-01-04T01:34:18.418Z,97519.91
2023-01-04T01:36:46.835Z,97517.16
2023-01-04T01:39:15.409Z,97520.78
2023-01-04T01:41:45.125Z,97514.06
2023-01-04T01:44:50.756Z,97518.22
2023-01-04T01:47:22.749Z,97518.56
2023-01-04T01:49:54.681Z,97522.63
2023-01-04T01:52:26.950Z,97531.44
2023-01-04T01:54:59.265Z,97528.56
2023-01-04T01:57:33.154Z,97531.28
2023-01-04T02:00:07.637Z,97532.38
2023-01-04T02:02:36.682Z,97528.09
2023-01-04T02:05:05.878Z,97533.19
2023-01-04T02:07:36.558Z,97526.28
2023-01-04T02:10:05.533Z,97527.56
2023-01-04T02:12:35.347Z,97520.41
2023-01-04T02:15:03.932Z,97515.75
2023-01-04T02:17:40.289Z,97507.97
2023-01-04T02:20:46.968Z,97504.41
2023-01-04T02:23:49.504Z,97513.25
2023-01-04T02:26:57.877Z,97510.81
2023-01-04T02:30:12.536Z,97517.97
2023-01-04T02:32:54.860Z,97509.94
2023-01-04T02:35:29.887Z,97508.13
2023-01-04T02:38:06.973Z,97510.09
2023-01-04T02:40:47.900Z,97506.66
2023-01-04T02:43:41.961Z,97508.66
2023-01-04T02:46:15.776Z,97503.28
2023-01-04T02:49:03.241Z,97501.53
2023-01-04T02:51:33.578Z,97503.09
2023-01-04T02:54:05.924Z,97500.13
2023-01-04T02:56:49.222Z,97486.78
2023-01-04T02:59:36.675Z,97486.50
2023-01-04T03:02:40.333Z,97492.22
2023-01-04T03:05:40.177Z,97484.63
2023-01-04T03:08:17.181Z,97497.66
2023-01-04T03:10:51.106Z,97487.47
2023-01-04T03:13:23.341Z,97492.22
2023-01-04T03:15:55.840Z,97487.00
2023-01-04T03:18:28.110Z,97480.28
2023-01-04T03:21:00.305Z,97473.38
2023-01-04T03:23:51.128Z,97466.88
2023-01-04T03:26:39.029Z,97472.66
2023-01-04T03:29:47.019Z,97470.41
2023-01-04T03:32:39.662Z,97468.75
2023-01-04T03:35:28.269Z,97457.53
2023-01-04T03:38:19.844Z,97453.00
2023-01-04T03:41:15.007Z,97456.66
2023-01-04T03:44:07.974Z,97456.28
2023-01-04T03:46:59.886Z,97465.19
2023-01-04T03:49:32.416Z,97459.44
2023-01-04T03:52:05.100Z,97457.03
2023-01-04T03:54:38.547Z,97459.84
2023-01-04T03:57:12.312Z,97442.97
2023-01-04T03:59:46.066Z,97450.72
2023-01-04T04:02:19.487Z,97443.69
2023-01-04T04:05:05.353Z,97447.38
2023-01-04T04:07:51.261Z,97441.94
2023-01-04T04:10:20.938Z,97450.13
2023-01-04T04:12:49.332Z,97445.41
2023-01-04T04:15:17.792Z,97446.00
2023-01-04T04:17:46.144Z,97444.94
2023-01-04T04:20:14.789Z,97434.38
2023-01-04T04:22:43.525Z,97439.63
2023-01-04T04:25:11.875Z,97437.59
2023-01-04T04:27:41.554Z,97443.50
2023-01-04T04:30:10.782Z,97446.66
2023-01-04T04:32:39.076Z,97445.41
2023-01-04T04:35:07.837Z,97449.47
2023-01-04T04:37:37.256Z,97446.75
2023-01-04T04:40:06.731Z,97444.97
2023-01-04T04:42:34.363Z,97452.41
2023-01-04T04:45:04.076Z,97446.56
2023-01-04T04:47:32.403Z,97446.75
2023-01-04T04:50:00.749Z,97452.81
2023-01-04T04:52:29.089Z,97450.81
2023-01-04T04:54:57.407Z,97439.28
2023-01-04T04:57:25.817Z,97442.72
2023-01-04T04:59:54.385Z,97436.25
2023-01-04T05:02:24.213Z,97440.56
2023-01-04T05:04:52.587Z,97438.75
2023-01-04T05:07:20.912Z,97440.66
2023-01-04T05:09:49.510Z,97440.63
2023-01-04T05:12:35.548Z,97437.81
2023-01-04T05:15:04.099Z,97445.97
2023-01-04T05:17:34.111Z,97432.97
2023-01-04T05:20:02.609Z,97431.63
2023-01-04T05:22:31.128Z,97432.88
2023-01-04T05:24:59.474Z,97441.03
2023-01-04T05:27:27.983Z,97440.56
2023-01-04T05:30:14.007Z,97431.88
2023-01-04T05:32:44.621Z,97436.16
2023-01-04T05:35:13.010Z,97441.81
2023-01-04T05:37:41.327Z,97436.38
2023-01-04T05:40:10.795Z,97436.56
2023-01-04T05:42:39.275Z,97435.16
2023-01-04T05:45:08.383Z,97441.22
2023-01-04T05:47:41.624Z,97438.59
2023-01-04T05:50:12.327Z,97437.13
2023-01-04T05:52:40.649Z,97437.66
2023-01-04T05:55:09.568Z,97438.41
2023-01-04T05:57:38.003Z,97427.81
2023-01-04T06:00:08.400Z,97432.84
2023-01-04T06:02:37.436Z,97427.53
2023-01-04T06:05:06.826Z,97424.91
2023-01-04T06:07:36.553Z,97421.63
2023-01-04T06:10:05.333Z,97426.75
2023-01-04T06:12:33.817Z,97430.09
2023-01-04T06:15:02.343Z,97427.09
2023-01-04T06:17:30.709Z,97432.16
2023-01-04T06:19:59.124Z,97421.34
2023-01-04T06:22:30.112Z,97424.38
2023-01-04T06:24:59.878Z,97418.41
2023-01-04T06:27:28.512Z,97418.22
2023-01-04T06:29:56.881Z,97419.59
2023-01-04T06:32:25.181Z,97418.47
2023-01-04T06:34:54.105Z,97413.75
2023-01-04T06:37:22.433Z,97418.78
2023-01-04T06:39:50.882Z,97423.06
2023-01-04T06:42:38.217Z,97415.84
2023-01-04T06:45:07.676Z,97420.13
2023-01-04T06:47:36.471Z,97412.88
2023-01-04T06:50:05.594Z,97415.97
2023-01-04T06:52:34.030Z,97421.38
2023-01-04T06:55:02.594Z,97428.50
2023-01-04T06:57:32.406Z,97424.78
2023-01-04T07:00:00.736Z,97428.88
2023-01-04T07:02:29.187Z,97428.41
2023-01-04T07:04:57.679Z,97419.31
2023-01-04T07:07:26.126Z,97423.22
2023-01-04T07:09:54.658Z,97417.28
2023-01-04T07:12:22.972Z,97417.44
2023-01-04T07:14:52.765Z,97417.00
2023-01-04T07:17:24.978Z,97416.78
2023-01-04T07:19:58.177Z,97419.63
2023-01-04T07:22:26.675Z,97412.59
2023-01-04T07:24:54.974Z,97411.16
2023-01-04T07:27:23.313Z,97410.22
2023-01-04T07:29:53.074Z,97399.38
2023-01-04T07:32:21.453Z,97409.03
2023-01-04T07:34:49.837Z,97406.66
2023-01-04T07:37:18.321Z,97405.41
2023-01-04T07:39:48.558Z,97408.41
2023-01-04T07:42:18.435Z,97404.50
2023-01-04T07:44:46.823Z,97402.03
2023-01-04T07:47:16.631Z,97410.56
2023-01-04T07:49:44.992Z,97419.78
2023-01-04T07:52:13.302Z,97401.69
2023-01-04T07:54:41.630Z,97405.38
2023-01-04T07:57:10.089Z,97408.34
2023-01-04T07:59:38.646Z,97400.69
2023-01-04T08:02:07.370Z,97403.53
2023-01-04T08:04:37.282Z,97398.69
2023-01-04T08:07:06.379Z,97410.25
2023-01-04T08:09:38.137Z,97398.91
2023-01-04T08:12:06.649Z,97404.06
2023-01-04T08:14:34.963Z,97404.16
2023-01-04T08:17:03.356Z,97409.94
2023-01-04T08:19:31.745Z,97402.28
2023-01-04T08:22:01.491Z,97400.41
2023-01-04T08:24:30.133Z,97402.69
2023-01-04T08:26:59.217Z,97400.59
2023-01-04T08:29:34.358Z,97412.25
2023-01-04T08:32:03.325Z,97396.00
2023-01-04T08:34:32.775Z,97387.16
2023-01-04T08:37:02.557Z,97391.53
2023-01-04T08:39:35.365Z,97387.88
2023-01-04T08:42:18.842Z,97382.47
2023-01-04T08:44:51.855Z,97384.31
2023-01-04T08:47:22.624Z,97388.72
2023-01-04T08:49:50.957Z,97386.63
2023-01-04T08:52:21.707Z,97389.50
2023-01-04T08:54:50.152Z,97391.31
2023-01-04T08:57:19.197Z,97389.72
2023-01-04T08:59:47.509Z,97392.31
2023-01-04T09:02:22.268Z,97377.56
2023-01-04T09:04:51.428Z,97378.53
2023-01-04T09:07:21.216Z,97385.69
2023-01-04T09:09:49.597Z,97369.81
2023-01-04T09:12:17.960Z,97378.31
2023-01-04T09:14:46.451Z,97377.53
2023-01-04T09:17:14.845Z,97380.25
2023-01-04T09:19:43.325Z,97374.28
2023-01-04T09:22:11.758Z,97377.66
2023-01-04T09:24:41.517Z,97372.31
2023-01-04T09:27:09.896Z,97380.09
2023-01-04T09:29:38.293Z,97373.66
2023-01-04T09:32:09.109Z,97379.97
2023-01-04T09:34:41.300Z,97371.50
2023-01-04T09:37:09.684Z,97379.19
2023-01-04T09:39:38.110Z,97366.50
2023-01-04T09:42:22.727Z,97363.03
2023-01-04T09:45:22.394Z,97363.34
2023-01-04T09:47:47.673Z,97359.78
2023-01-04T09:50:19.881Z,97352.69
2023-01-04T09:52:57.619Z,97347.56
2023-01-04T09:55:39.168Z,97349.72
2023-01-04T09:58:23.396Z,97345.16
2023-01-04T10:00:56.641Z,97340.75
2023-01-04T10:03:28.892Z,97345.53
2023-01-04T10:05:58.018Z,97342.16
2023-01-04T10:08:26.685Z,97340.69
2023-01-04T10:11:08.621Z,97337.56
2023-01-04T10:13:53.417Z,97329.41
2023-01-04T10:17:11.099Z,97330.19
2023-01-04T10:22:37.192Z,97316.66
2023-01-04T10:25:21.488Z,97316.66
2023-01-04T10:28:04.531Z,97313.97
2023-01-04T10:30:41.381Z,97302.78
2023-01-04T10:33:14.196Z,97308.53
2023-01-04T10:35:45.517Z,97309.94
2023-01-04T10:38:18.919Z,97315.09
2023-01-04T10:40:48.835Z,97303.84
2023-01-04T10:43:26.819Z,97303.31
2023-01-04T10:46:03.487Z,97297.75
2023-01-04T10:48:41.644Z,97301.94
2023-01-04T10:51:11.528Z,97291.97
2023-01-04T10:53:45.448Z,97287.25
2023-01-04T10:56:23.490Z,97283.97
2023-01-04T10:59:03.095Z,97281.56
2023-01-04T11:01:38.303Z,97270.03
2023-01-04T11:04:12.456Z,97278.50
2023-01-04T11:06:44.285Z,97270.75
2023-01-04T11:09:24.582Z,97264.69
2023-01-04T11:11:56.226Z,97255.84
2023-01-04T11:14:28.495Z,97255.69
2023-01-04T11:17:05.503Z,97252.50
2023-01-04T11:19:34.833Z,97252.22
2023-01-04T11:22:12.159Z,97259.03
2023-01-04T11:25:07.622Z,97257.13
2023-01-04T11:27:43.045Z,97261.53
2023-01-04T11:30:18.548Z,97270.84
2023-01-04T11:32:56.056Z,97267.69
2023-01-04T11:35:43.197Z,97262.25
2023-01-04T11:38:15.231Z,97257.97
2023-01-04T11:40:54.976Z,97246.16
2023-01-04T11:43:24.511Z,97235.34
2023-01-04T11:45:58.945Z,97239.50
2023-01-04T11:48:40.545Z,97234.22
2023-01-04T11:51:20.037Z,97235.03
2023-01-04T11:53:58.522Z,97224.47
2023-01-04T11:56:29.179Z,97232.53
2023-01-04T11:59:25.124Z,97214.06
2023-01-04T12:02:19.288Z,97192.25
2023-01-04T12:05:02.506Z,97168.78
2023-01-04T12:07:33.623Z,97179.47
2023-01-04T12:10:04.867Z,97184.88
2023-01-04T12:12:35.182Z,97177.09
2023-01-04T12:15:09.468Z,97182.38
2023-01-04T12:17:47.553Z,97171.97
2023-01-04T12:20:20.276Z,97172.94
2023-01-04T12:22:49.034Z,97170.03
2023-01-04T12:25:32.879Z,97173.38
2023-01-04T12:28:01.900Z,97171.56
2023-01-04T12:30:39.245Z,97165.28
2023-01-04T12:33:47.336Z,97164.44
2023-01-04T12:36:19.144Z,97151.38
2023-01-04T12:39:02.646Z,97169.03
2023-01-04T12:42:21.630Z,97146.28
2023-01-04T12:45:17.049Z,97158.63
2023-01-04T12:48:11.018Z,97166.53
2023-01-04T12:51:46.834Z,97147.22
2023-01-04T12:54:32.203Z,97149.19
2023-01-04T12:57:25.567Z,97147.50
2023-01-04T12:59:56.914Z,97137.09
2023-01-04T13:02:27.622Z,97132.09
2023-01-04T13:07:50.330Z,97107.50
2023-01-04T13:10:32.731Z,97110.16
2023-01-04T13:13:21.657Z,97100.97
2023-01-04T13:16:03.938Z,97106.25
2023-01-04T13:18:37.233Z,97096.81
2023-01-04T13:21:13.044Z,97094.19
2023-01-04T13:23:48.861Z,97079.19
2023-01-04T13:26:48.488Z,97069.56
2023-01-04T13:29:20.322Z,97070.56
2023-01-04T13:31:55.711Z,97074.16
2023-01-04T13:34:27.129Z,97064.47
2023-01-04T13:37:06.446Z,97064.16
2023-01-04T13:39:35.776Z,97052.47
2023-01-04T13:42:08.067Z,97050.56
2023-01-04T13:45:19.300Z,97073.06
2023-01-04T13:47:52.220Z,97065.13
2023-01-04T13:50:33.797Z,97064.97
2023-01-04T13:53:07.670Z,97069.16
2023-01-04T13:55:38.794Z,97063.88
2023-01-04T13:58:18.023Z,97061.94
2023-01-04T14:00:49.623Z,97059.97
2023-01-04T14:03:28.210Z,97079.28
2023-01-04T14:06:04.490Z,97067.75
2023-01-04T14:08:37.623Z,97060.69
2023-01-04T14:11:37.956Z,97065.94
2023-01-04T14:14:22.254Z,97064.28
2023-01-04T14:16:52.022Z,97069.72
2023-01-04T14:19:42.416Z,97072.50
2023-01-04T14:22:38.672Z,97070.00
2023-01-04T14:25:48.712Z,97059.56
2023-01-04T14:28:28.624Z,97056.38
2023-01-04T14:31:15.228Z,97062.91
2023-01-04T14:33:45.929Z,97049.84
2023-01-04T14:36:19.691Z,97052.66
2023-01-04T14:38:57.215Z,97052.78
2023-01-04T14:41:29.307Z,97059.00
2023-01-04T14:44:14.359Z,97039.84
2023-01-04T14:46:47.208Z,97041.53
2023-01-04T14:49:17.130Z,97032.63
2023-01-04T14:51:48.597Z,97033.47
2023-01-04T14:54:24.284Z,97032.34
2023-01-04T14:56:54.514Z,97024.44
2023-01-04T14:59:24.950Z,97033.06
2023-01-04T15:01:56.725Z,97025.00
2023-01-04T15:04:25.885Z,97015.25
2023-01-04T15:06:56.257Z,97016.94
2023-01-04T15:09:24.866Z,97024.88
2023-01-04T15:11:56.030Z,97021.38
2023-01-04T15:14:25.147Z,97024.16
2023-01-04T15:16:55.151Z,97021.38
2023-01-04T15:19:23.808Z,97027.50
2023-01-04T15:21:52.174Z,97027.50
2023-01-04T15:24:20.564Z,97039.72
2023-01-04T15:26:49.245Z,97025.56
2023-01-04T15:29:17.605Z,97038.59
2023-01-04T15:31:46.081Z,97030.66
2023-01-04T15:34:15.878Z,97033.31
2023-01-04T15:36:44.732Z,97036.09
2023-01-04T15:39:14.551Z,97026.50
2023-01-04T15:42:05.746Z,97018.03
2023-01-04T15:44:34.123Z,97020.81
2023-01-04T15:47:02.566Z,97020.00
2023-01-04T15:49:32.337Z,97012.06
2023-01-04T15:52:01.081Z,97023.44
2023-01-04T15:54:29.982Z,97015.69
2023-01-04T15:56:58.709Z,97007.91
2023-01-04T15:59:27.077Z,97008.75
2023-01-04T16:01:55.522Z,97019.16
2023-01-04T16:04:24.168Z,97000.56
2023-01-04T16:06:53.952Z,97002.34
2023-01-04T16:09:22.569Z,96996.25
2023-01-04T16:12:08.701Z,96991.78
2023-01-04T16:14:37.300Z,97000.56
2023-01-04T16:17:05.679Z,97011.94
2023-01-04T16:19:34.343Z,97002.19
2023-01-04T16:22:04.574Z,97012.75
2023-01-04T16:27:21.546Z,97005.16
2023-01-04T16:29:50.834Z,96996.38
2023-01-04T16:32:19.984Z,97010.25
2023-01-04T16:34:50.221Z,97005.53
2023-01-04T16:37:20.283Z,96998.59
2023-01-04T16:40:07.719Z,97004.97
2023-01-04T16:42:37.509Z,96987.75
2023-01-04T16:45:07.323Z,96987.38
2023-01-04T16:47:41.207Z,96988.63
2023-01-04T16:50:10.767Z,96998.34
2023-01-04T16:52:40.985Z,96992.50
2023-01-04T16:55:10.819Z,96987.53
2023-01-04T16:57:39.332Z,96992.38
2023-01-04T17:00:09.336Z,96989.88
2023-01-04T17:02:38.101Z,96992.13
2023-01-04T17:05:07.594Z,96982.66
2023-01-04T17:07:35.898Z,96989.88
2023-01-04T17:10:06.365Z,96990.06
2023-01-04T17:12:50.236Z,96986.44
2023-01-04T17:18:08.036Z,96974.50
2023-01-04T17:20:37.810Z,96984.34
2023-01-04T17:23:06.198Z,96976.56
2023-01-04T17:25:36.134Z,96967.84
2023-01-04T17:28:04.548Z,96976.72
2023-01-04T17:30:33.265Z,96984.63
2023-01-04T17:33:01.640Z,96981.84
2023-01-04T17:35:30.010Z,96984.22
2023-01-04T17:37:58.375Z,96964.50
2023-01-04T17:40:26.819Z,96962.56
2023-01-04T17:42:56.703Z,96960.59
2023-01-04T17:45:25.120Z,96944.22
2023-01-04T17:47:54.176Z,96963.09
2023-01-04T17:50:25.301Z,96959.34
2023-01-04T17:52:53.665Z,96958.38
2023-01-04T17:55:22.173Z,96961.00
2023-01-04T17:57:50.567Z,96965.16
2023-01-04T18:00:20.808Z,96955.31
2023-01-04T18:02:49.462Z,96945.31
2023-01-04T18:05:17.936Z,96959.88
2023-01-04T18:07:46.449Z,96952.78
2023-01-04T18:10:26.761Z,96956.41
2023-01-04T18:13:03.494Z,96950.44
2023-01-04T18:15:36.141Z,96953.34
2023-01-04T18:18:12.082Z,96942.09
2023-01-04T18:20:41.044Z,96939.47
2023-01-04T18:23:18.994Z,96936.28
2023-01-04T18:25:52.583Z,96952.25
2023-01-04T18:28:24.504Z,96939.06
2023-01-04T18:30:54.211Z,96941.69
2023-01-04T18:33:22.824Z,96954.19
2023-01-04T18:35:51.116Z,96956.16
2023-01-04T18:38:19.500Z,96953.50
2023-01-04T18:40:47.887Z,96955.31
2023-01-04T18:43:16.281Z,96955.19
2023-01-04T18:45:44.771Z,96936.72
2023-01-04T18:48:14.548Z,96931.56
2023-01-04T18:50:42.916Z,96917.56
2023-01-04T18:53:11.288Z,96917.56
2023-01-04T18:55:40.175Z,96932.69
2023-01-04T18:58:08.590Z,96919.78
2023-01-04T19:00:36.998Z,96937.56
2023-01-04T19:03:05.525Z,96939.38
2023-01-04T19:05:35.318Z,96919.91
2023-01-04T19:08:04.360Z,96932.41
2023-01-04T19:10:32.756Z,96916.91
2023-01-04T19:13:01.102Z,96915.53
2023-01-04T19:15:29.483Z,96919.38
2023-01-04T19:17:58.222Z,96921.50
2023-01-04T19:20:26.992Z,96924.28
2023-01-04T19:22:56.801Z,96926.09
2023-01-04T19:25:28.394Z,96927.00
2023-01-04T19:27:57.281Z,96925.34
2023-01-04T19:30:25.670Z,96928.97
2023-01-04T19:32:54.063Z,96950.88
2023-01-04T19:35:22.472Z,96947.28
2023-01-04T19:37:50.864Z,96941.75
2023-01-04T19:40:20.667Z,96952.03
2023-01-04T19:42:49.247Z,96953.66
2023-01-04T19:45:17.686Z,96957.28
2023-01-04T19:47:46.460Z,96940.66
2023-01-04T19:50:15.048Z,96938.84
2023-01-04T19:52:43.415Z,96940.66
2023-01-04T19:55:12.751Z,96927.47
2023-01-04T19:57:42.872Z,96924.81
2023-01-04T20:00:12.440Z,96921.50
2023-01-04T20:02:48.258Z,96918.19
2023-01-04T20:05:16.934Z,96899.13
2023-01-04T20:07:45.525Z,96892.31
2023-01-04T20:10:14.588Z,96903.97
2023-01-04T20:12:44.847Z,96900.53
2023-01-04T20:15:15.024Z,96893.44
2023-01-04T20:17:43.402Z,96900.38
2023-01-04T20:20:11.940Z,96900.38
2023-01-04T20:22:40.713Z,96888.16
2023-01-04T20:25:09.709Z,96888.97
2023-01-04T20:27:40.489Z,96875.66
2023-01-04T20:30:11.674Z,96881.50
2023-01-04T20:32:40.351Z,96884.94
2023-01-04T20:35:09.262Z,96877.03
2023-01-04T20:37:37.782Z,96874.41
2023-01-04T20:40:07.314Z,96880.38
2023-01-04T20:42:53.279Z,96873.34
2023-01-04T20:45:22.980Z,96882.06
2023-01-04T20:47:51.360Z,96869.00
2023-01-04T20:50:19.773Z,96874.28
2023-01-04T20:52:48.298Z,96879.53
2023-01-04T20:55:17.783Z,96878.72
2023-01-04T20:57:46.278Z,96866.50
2023-01-04T21:00:16.034Z,96862.03
2023-01-04T21:02:45.964Z,96868.19
2023-01-04T21:05:14.519Z,96863.63
2023-01-04T21:07:43.107Z,96849.63
2023-01-04T21:10:11.463Z,96856.78
2023-01-04T21:12:40.040Z,96852.34
2023-01-04T21:15:09.155Z,96845.72
2023-01-04T21:17:38.206Z,96857.63
2023-01-04T21:20:08.938Z,96849.59
2023-01-04T21:22:37.410Z,96853.19
2023-01-04T21:25:06.677Z,96830.56
2023-01-04T21:27:35.729Z,96838.50
2023-01-04T21:30:04.731Z,96836.53
2023-01-04T21:32:34.203Z,96822.50
2023-01-04T21:35:02.574Z,96829.59
2023-01-04T21:37:34.205Z,96822.66
2023-01-04T21:40:02.564Z,96839.88
2023-01-04T21:42:31.075Z,96838.88
2023-01-04T21:44:59.411Z,96839.88
2023-01-04T21:47:28.808Z,96832.78
2023-01-04T21:49:57.138Z,96835.41
2023-01-04T21:52:25.667Z,96838.88
2023-01-04T21:54:55.715Z,96828.19
2023-01-04T21:57:24.123Z,96833.19
2023-01-04T21:59:52.486Z,96831.22
2023-01-04T22:02:21.432Z,96821.78
2023-01-04T22:04:49.839Z,96824.59
2023-01-04T22:07:18.516Z,96834.28
2023-01-04T22:09:47.818Z,96817.50
2023-01-04T22:12:21.356Z,96829.69
2023-01-04T22:14:49.734Z,96830.25
2023-01-04T22:17:18.308Z,96821.22
2023-01-04T22:19:46.680Z,96820.09
2023-01-04T22:22:14.961Z,96824.38
2023-01-04T22:24:43.288Z,96821.59
2023-01-04T22:27:11.614Z,96829.25
2023-01-04T22:29:41.360Z,96825.91
2023-01-04T22:32:09.682Z,96830.19
2023-01-04T22:34:38.053Z,96827.44
2023-01-04T22:37:06.397Z,96834.38
2023-01-04T22:39:34.734Z,96830.75
2023-01-04T22:42:03.105Z,96835.88
2023-01-04T22:44:31.740Z,96832.41
2023-01-04T22:47:01.479Z,96829.91
2023-01-04T22:49:30.082Z,96820.34
2023-01-04T22:51:58.843Z,96834.50
2023-01-04T22:54:27.179Z,96829.50
2023-01-04T22:56:55.517Z,96821.47
2023-01-04T22:59:25.263Z,96833.69
2023-01-04T23:01:54.066Z,96830.06
2023-01-04T23:04:23.856Z,96826.75
2023-01-04T23:06:52.297Z,96837.28
2023-01-04T23:09:20.633Z,96832.16
2023-01-04T23:11:48.981Z,96834.78
2023-01-04T23:14:18.624Z,96840.06
2023-01-04T23:16:47.406Z,96841.75
2023-01-04T23:19:15.905Z,96839.94
2023-01-04T23:21:45.602Z,96844.38
2023-01-04T23:24:15.718Z,96839.09
2023-01-04T23:26:47.168Z,96834.78
2023-01-04T23:29:15.572Z,96831.19
2023-01-04T23:31:44.047Z,96836.47
2023-01-04T23:34:13.304Z,96840.94
2023-01-04T23:36:42.639Z,96832.84
2023-01-04T23:39:14.930Z,96839.94
2023-01-04T23:41:47.031Z,96833.84
2023-01-04T23:44:18.270Z,96827.88
2023-01-04T23:46:47.308Z,96837.75
2023-01-04T23:49:15.671Z,96845.66
2023-01-04T23:51:44.263Z,96845.66
2023-01-04T23:54:14.065Z,96850.25
2023-01-04T23:56:42.556Z,96844.97
2023-01-04T23:59:11.390Z,96837.88
